JST99 YMML-YSCB
Flight info
| Callsign | JST99 |
|---|---|
| Flight time | 0h 44m |
| Altitude | 33000 |
| Route | ML H129 DOSEL Y59 ARRAN J42 CB |
| Aircraft | A319/M-SDE3FGHIRWY/LB1 |
Departure
| Time | 2026-05-06 13:59 |
|---|---|
| Airport | Melbourne Airport (YMML) |
Arrival
| Time | 2026-05-06 14:43 |
|---|---|
| Airport | Canberra Airport (YSCB) |
| Time | Latitude | Longitude | Altitude | Speed | Heading |
|---|---|---|---|---|---|
| 2026-05-06 13:41 | -37.66730 | 144.84708 | 356 ft | 0 kts | 210° |
| 2026-05-06 13:53 | -37.66715 | 144.84719 | 353 ft | 4 kts | 201° |
| 2026-05-06 13:53 | -37.66692 | 144.84723 | 355 ft | 4 kts | 149° |
| 2026-05-06 13:53 | -37.66685 | 144.84713 | 349 ft | 0 kts | 82° |
| 2026-05-06 13:56 | -37.66685 | 144.84717 | 343 ft | 3 kts | 82° |
| 2026-05-06 13:57 | -37.66659 | 144.84770 | 336 ft | 11 kts | 39° |
| 2026-05-06 13:57 | -37.66563 | 144.84802 | 333 ft | 18 kts | 357° |
| 2026-05-06 13:57 | -37.66430 | 144.84773 | 331 ft | 21 kts | 2° |
| 2026-05-06 13:57 | -37.66281 | 144.84780 | 330 ft | 22 kts | 355° |
| 2026-05-06 13:58 | -37.66217 | 144.84679 | 336 ft | 12 kts | 269° |
| 2026-05-06 13:58 | -37.66216 | 144.84665 | 338 ft | 0 kts | 271° |
| 2026-05-06 13:58 | -37.66213 | 144.84577 | 345 ft | 34 kts | 274° |
| 2026-05-06 13:58 | -37.66179 | 144.84034 | 379 ft | 89 kts | 274° |
| 2026-05-06 13:59 | -37.66116 | 144.83022 | 414 ft | 142 kts | 276° |
| 2026-05-06 13:59 | -37.66022 | 144.81698 | 805 ft | 157 kts | 281° |
| 2026-05-06 13:59 | -37.65917 | 144.80299 | 1446 ft | 162 kts | 279° |
| 2026-05-06 13:59 | -37.65792 | 144.78861 | 2057 ft | 172 kts | 277° |
| 2026-05-06 14:00 | -37.65706 | 144.77259 | 2450 ft | 194 kts | 277° |
| 2026-05-06 14:00 | -37.65615 | 144.75475 | 2790 ft | 215 kts | 276° |
| 2026-05-06 14:00 | -37.65515 | 144.73487 | 3299 ft | 237 kts | 276° |
| 2026-05-06 14:00 | -37.65408 | 144.71383 | 4209 ft | 245 kts | 275° |
| 2026-05-06 14:01 | -37.65232 | 144.69219 | 4618 ft | 249 kts | 283° |
| 2026-05-06 14:01 | -37.64580 | 144.67199 | 4996 ft | 252 kts | 301° |
| 2026-05-06 14:01 | -37.63424 | 144.65535 | 6002 ft | 256 kts | 317° |
| 2026-05-06 14:01 | -37.61874 | 144.64361 | 6911 ft | 267 kts | 335° |
| 2026-05-06 14:02 | -37.60088 | 144.63662 | 7852 ft | 270 kts | 339° |
| 2026-05-06 14:02 | -37.58284 | 144.62989 | 8813 ft | 272 kts | 340° |
| 2026-05-06 14:02 | -37.56414 | 144.62527 | 9744 ft | 280 kts | 354° |
| 2026-05-06 14:02 | -37.54457 | 144.62881 | 10611 ft | 291 kts | 14° |
| 2026-05-06 14:03 | -37.52598 | 144.64149 | 10982 ft | 323 kts | 36° |
| 2026-05-06 14:03 | -37.51066 | 144.66393 | 11211 ft | 352 kts | 50° |
| 2026-05-06 14:03 | -37.49572 | 144.68918 | 11667 ft | 365 kts | 50° |
| 2026-05-06 14:03 | -37.48044 | 144.71501 | 12321 ft | 371 kts | 50° |
| 2026-05-06 14:04 | -37.46657 | 144.74278 | 13020 ft | 378 kts | 57° |
| 2026-05-06 14:04 | -37.45363 | 144.77142 | 13713 ft | 383 kts | 56° |
| 2026-05-06 14:04 | -37.44031 | 144.80058 | 14342 ft | 387 kts | 56° |
| 2026-05-06 14:04 | -37.42679 | 144.83000 | 14966 ft | 390 kts | 56° |
| 2026-05-06 14:05 | -37.41308 | 144.85976 | 15618 ft | 393 kts | 56° |
| 2026-05-06 14:05 | -37.39932 | 144.88964 | 16260 ft | 397 kts | 56° |
| 2026-05-06 14:05 | -37.38542 | 144.91984 | 16893 ft | 400 kts | 56° |
| 2026-05-06 14:05 | -37.37138 | 144.95029 | 17520 ft | 404 kts | 56° |
| 2026-05-06 14:06 | -37.35724 | 144.98094 | 18165 ft | 407 kts | 56° |
| 2026-05-06 14:06 | -37.34297 | 145.01186 | 18759 ft | 410 kts | 56° |
| 2026-05-06 14:06 | -37.32861 | 145.04299 | 19361 ft | 412 kts | 55° |
| 2026-05-06 14:06 | -37.31437 | 145.07382 | 19931 ft | 415 kts | 55° |
| 2026-05-06 14:07 | -37.29982 | 145.10527 | 20495 ft | 418 kts | 55° |
| 2026-05-06 14:07 | -37.28513 | 145.13700 | 21055 ft | 421 kts | 55° |
| 2026-05-06 14:07 | -37.27036 | 145.16891 | 21576 ft | 425 kts | 55° |
| 2026-05-06 14:07 | -37.25548 | 145.20109 | 22089 ft | 427 kts | 54° |
| 2026-05-06 14:08 | -37.24049 | 145.23345 | 22580 ft | 430 kts | 54° |
| 2026-05-06 14:08 | -37.22535 | 145.26599 | 23071 ft | 433 kts | 54° |
| 2026-05-06 14:08 | -37.21009 | 145.29872 | 23547 ft | 436 kts | 54° |
| 2026-05-06 14:08 | -37.19474 | 145.33163 | 23979 ft | 439 kts | 54° |
| 2026-05-06 14:09 | -37.17927 | 145.36477 | 24376 ft | 441 kts | 54° |
| 2026-05-06 14:09 | -37.16347 | 145.39782 | 24755 ft | 442 kts | 50° |
| 2026-05-06 14:09 | -37.14571 | 145.42929 | 25121 ft | 443 kts | 48° |
| 2026-05-06 14:09 | -37.12769 | 145.46074 | 25494 ft | 445 kts | 48° |
| 2026-05-06 14:10 | -37.10957 | 145.49231 | 25880 ft | 448 kts | 48° |
| 2026-05-06 14:10 | -37.09134 | 145.52406 | 26270 ft | 450 kts | 48° |
| 2026-05-06 14:10 | -37.07919 | 145.54518 | 26534 ft | 451 kts | 48° |
| 2026-05-06 14:10 | -37.06078 | 145.57716 | 26898 ft | 454 kts | 47° |
| 2026-05-06 14:11 | -37.04227 | 145.60927 | 27236 ft | 456 kts | 48° |
| 2026-05-06 14:11 | -37.02365 | 145.64153 | 27596 ft | 458 kts | 48° |
| 2026-05-06 14:11 | -37.00494 | 145.67395 | 27927 ft | 461 kts | 48° |
| 2026-05-06 14:11 | -36.98613 | 145.70655 | 28277 ft | 463 kts | 48° |
| 2026-05-06 14:12 | -36.96717 | 145.73939 | 28625 ft | 466 kts | 48° |
| 2026-05-06 14:12 | -36.94816 | 145.77226 | 28964 ft | 468 kts | 47° |
| 2026-05-06 14:12 | -36.92905 | 145.80527 | 29308 ft | 470 kts | 47° |
| 2026-05-06 14:12 | -36.90987 | 145.83839 | 29644 ft | 472 kts | 47° |
| 2026-05-06 14:13 | -36.89056 | 145.87168 | 29957 ft | 474 kts | 47° |
| 2026-05-06 14:13 | -36.87116 | 145.90511 | 30264 ft | 476 kts | 47° |
| 2026-05-06 14:13 | -36.85174 | 145.93863 | 30601 ft | 476 kts | 47° |
| 2026-05-06 14:13 | -36.83233 | 145.97213 | 30981 ft | 476 kts | 47° |
| 2026-05-06 14:14 | -36.81292 | 146.00548 | 31360 ft | 475 kts | 47° |
| 2026-05-06 14:14 | -36.79347 | 146.03878 | 31737 ft | 474 kts | 47° |
| 2026-05-06 14:14 | -36.77403 | 146.07199 | 32121 ft | 474 kts | 47° |
| 2026-05-06 14:14 | -36.75461 | 146.10513 | 32504 ft | 473 kts | 47° |
| 2026-05-06 14:15 | -36.73526 | 146.13821 | 32882 ft | 472 kts | 48° |
| 2026-05-06 14:15 | -36.71587 | 146.17139 | 33025 ft | 471 kts | 48° |
| 2026-05-06 14:15 | -36.67749 | 146.23708 | 33053 ft | 468 kts | 47° |
| 2026-05-06 14:16 | -36.63906 | 146.30246 | 33056 ft | 467 kts | 47° |
| 2026-05-06 14:16 | -36.60061 | 146.36766 | 33058 ft | 467 kts | 47° |
| 2026-05-06 14:17 | -36.56223 | 146.43286 | 33057 ft | 467 kts | 47° |
| 2026-05-06 14:17 | -36.52376 | 146.49798 | 33053 ft | 467 kts | 47° |
| 2026-05-06 14:18 | -36.48530 | 146.56293 | 33028 ft | 466 kts | 48° |
| 2026-05-06 14:18 | -36.44689 | 146.62774 | 33036 ft | 466 kts | 48° |
| 2026-05-06 14:19 | -36.40840 | 146.69261 | 33043 ft | 466 kts | 47° |
| 2026-05-06 14:19 | -36.37004 | 146.75694 | 33044 ft | 466 kts | 47° |
| 2026-05-06 14:20 | -36.33141 | 146.82161 | 33037 ft | 466 kts | 48° |
| 2026-05-06 14:20 | -36.29282 | 146.88632 | 33042 ft | 466 kts | 48° |
| 2026-05-06 14:21 | -36.25421 | 146.95089 | 33039 ft | 466 kts | 48° |
| 2026-05-06 14:21 | -36.21553 | 147.01544 | 33032 ft | 466 kts | 48° |
| 2026-05-06 14:22 | -36.17684 | 147.07987 | 33036 ft | 466 kts | 48° |
| 2026-05-06 14:22 | -36.13812 | 147.14421 | 33037 ft | 465 kts | 48° |
| 2026-05-06 14:23 | -36.09930 | 147.20840 | 33034 ft | 466 kts | 48° |
| 2026-05-06 14:23 | -36.06050 | 147.27252 | 33017 ft | 465 kts | 48° |
| 2026-05-06 14:24 | -36.02178 | 147.33650 | 33027 ft | 465 kts | 48° |
| 2026-05-06 14:24 | -35.98335 | 147.40000 | 33026 ft | 465 kts | 48° |
| 2026-05-06 14:25 | -35.95202 | 147.46815 | 33182 ft | 448 kts | 64° |
| 2026-05-06 14:25 | -35.94062 | 147.50334 | 33176 ft | 435 kts | 63° |
| 2026-05-06 14:25 | -35.93093 | 147.53825 | 33148 ft | 425 kts | 69° |
| 2026-05-06 14:26 | -35.92259 | 147.57280 | 33014 ft | 416 kts | 69° |
| 2026-05-06 14:26 | -35.91462 | 147.60701 | 32543 ft | 416 kts | 70° |
| 2026-05-06 14:26 | -35.90659 | 147.64173 | 31771 ft | 424 kts | 70° |
| 2026-05-06 14:26 | -35.89842 | 147.67696 | 31031 ft | 430 kts | 70° |
| 2026-05-06 14:27 | -35.89009 | 147.71266 | 30298 ft | 436 kts | 70° |
| 2026-05-06 14:27 | -35.88163 | 147.74872 | 29460 ft | 440 kts | 70° |
| 2026-05-06 14:27 | -35.87306 | 147.78517 | 28630 ft | 444 kts | 70° |
| 2026-05-06 14:27 | -35.86441 | 147.82183 | 27825 ft | 447 kts | 70° |
| 2026-05-06 14:28 | -35.85569 | 147.85862 | 27045 ft | 448 kts | 71° |
| 2026-05-06 14:28 | -35.84690 | 147.89560 | 26274 ft | 449 kts | 71° |
| 2026-05-06 14:28 | -35.83809 | 147.93255 | 25537 ft | 449 kts | 71° |
| 2026-05-06 14:28 | -35.82924 | 147.96955 | 24814 ft | 449 kts | 71° |
| 2026-05-06 14:29 | -35.82042 | 148.00636 | 24117 ft | 449 kts | 71° |
| 2026-05-06 14:29 | -35.81160 | 148.04329 | 23361 ft | 447 kts | 71° |
| 2026-05-06 14:29 | -35.80286 | 148.07997 | 22554 ft | 446 kts | 71° |
| 2026-05-06 14:29 | -35.79415 | 148.11655 | 21773 ft | 444 kts | 71° |
| 2026-05-06 14:30 | -35.78550 | 148.15284 | 20993 ft | 441 kts | 71° |
| 2026-05-06 14:30 | -35.77682 | 148.18893 | 20252 ft | 438 kts | 71° |
| 2026-05-06 14:30 | -35.76830 | 148.22426 | 19529 ft | 434 kts | 70° |
| 2026-05-06 14:30 | -35.75963 | 148.26016 | 18794 ft | 430 kts | 70° |
| 2026-05-06 14:31 | -35.75114 | 148.29533 | 18045 ft | 427 kts | 71° |
| 2026-05-06 14:31 | -35.74270 | 148.33028 | 17254 ft | 424 kts | 71° |
| 2026-05-06 14:31 | -35.73429 | 148.36505 | 16493 ft | 423 kts | 71° |
| 2026-05-06 14:31 | -35.72589 | 148.39966 | 15729 ft | 422 kts | 71° |
| 2026-05-06 14:32 | -35.71753 | 148.43413 | 15002 ft | 420 kts | 71° |
| 2026-05-06 14:32 | -35.70921 | 148.46849 | 14277 ft | 417 kts | 71° |
| 2026-05-06 14:32 | -35.70093 | 148.50261 | 13519 ft | 414 kts | 71° |
| 2026-05-06 14:32 | -35.69273 | 148.53631 | 12967 ft | 406 kts | 71° |
| 2026-05-06 14:33 | -35.68479 | 148.56894 | 12734 ft | 388 kts | 71° |
| 2026-05-06 14:33 | -35.67720 | 148.60009 | 12500 ft | 373 kts | 71° |
| 2026-05-06 14:33 | -35.66986 | 148.63012 | 12266 ft | 360 kts | 71° |
| 2026-05-06 14:33 | -35.66276 | 148.65904 | 12039 ft | 348 kts | 71° |
| 2026-05-06 14:34 | -35.65588 | 148.68710 | 11809 ft | 337 kts | 71° |
| 2026-05-06 14:34 | -35.64920 | 148.71436 | 11575 ft | 328 kts | 71° |
| 2026-05-06 14:34 | -35.64270 | 148.74090 | 11301 ft | 322 kts | 71° |
| 2026-05-06 14:34 | -35.63635 | 148.76676 | 11015 ft | 318 kts | 71° |
| 2026-05-06 14:35 | -35.62999 | 148.79256 | 10718 ft | 314 kts | 71° |
| 2026-05-06 14:35 | -35.62370 | 148.81809 | 10426 ft | 310 kts | 71° |
| 2026-05-06 14:35 | -35.61748 | 148.84329 | 10144 ft | 307 kts | 71° |
| 2026-05-06 14:35 | -35.61131 | 148.86821 | 9846 ft | 304 kts | 71° |
| 2026-05-06 14:36 | -35.60515 | 148.89299 | 9524 ft | 302 kts | 70° |
| 2026-05-06 14:36 | -35.59904 | 148.91755 | 9211 ft | 299 kts | 71° |
| 2026-05-06 14:36 | -35.59301 | 148.94186 | 8892 ft | 297 kts | 71° |
| 2026-05-06 14:36 | -35.58704 | 148.96595 | 8575 ft | 293 kts | 70° |
| 2026-05-06 14:37 | -35.58111 | 148.98979 | 8279 ft | 291 kts | 71° |
| 2026-05-06 14:37 | -35.57522 | 149.01352 | 7977 ft | 290 kts | 71° |
| 2026-05-06 14:37 | -35.56934 | 149.03728 | 7606 ft | 291 kts | 71° |
| 2026-05-06 14:37 | -35.56346 | 149.06100 | 7229 ft | 290 kts | 71° |
| 2026-05-06 14:38 | -35.55756 | 149.08469 | 6864 ft | 289 kts | 70° |
| 2026-05-06 14:38 | -35.55167 | 149.10832 | 6500 ft | 289 kts | 69° |
| 2026-05-06 14:38 | -35.54577 | 149.13191 | 6114 ft | 288 kts | 70° |
| 2026-05-06 14:38 | -35.53993 | 149.15533 | 5833 ft | 286 kts | 69° |
| 2026-05-06 14:39 | -35.53269 | 149.17769 | 5591 ft | 276 kts | 50° |
| 2026-05-06 14:39 | -35.51858 | 149.19161 | 5535 ft | 252 kts | 15° |
| 2026-05-06 14:39 | -35.50184 | 149.19493 | 5471 ft | 240 kts | 358° |
| 2026-05-06 14:39 | -35.48523 | 149.19474 | 5214 ft | 239 kts | 355° |
| 2026-05-06 14:40 | -35.46873 | 149.19449 | 4914 ft | 233 kts | 357° |
| 2026-05-06 14:40 | -35.45281 | 149.19445 | 4616 ft | 224 kts | 357° |
| 2026-05-06 14:40 | -35.43781 | 149.19447 | 4312 ft | 206 kts | 356° |
| 2026-05-06 14:40 | -35.42414 | 149.19448 | 4087 ft | 185 kts | 357° |
| 2026-05-06 14:41 | -35.41172 | 149.19449 | 3811 ft | 171 kts | 356° |
| 2026-05-06 14:41 | -35.40047 | 149.19449 | 3590 ft | 154 kts | 356° |
| 2026-05-06 14:41 | -35.39010 | 149.19448 | 3392 ft | 146 kts | 355° |
| 2026-05-06 14:41 | -35.38020 | 149.19447 | 3206 ft | 146 kts | 355° |
| 2026-05-06 14:42 | -35.36975 | 149.19446 | 3009 ft | 156 kts | 356° |
| 2026-05-06 14:42 | -35.35871 | 149.19440 | 2839 ft | 164 kts | 355° |
| 2026-05-06 14:42 | -35.34764 | 149.19457 | 2633 ft | 171 kts | 358° |
| 2026-05-06 14:42 | -35.33575 | 149.19447 | 2366 ft | 171 kts | 354° |
| 2026-05-06 14:43 | -35.32400 | 149.19446 | 2125 ft | 167 kts | 356° |
| 2026-05-06 14:43 | -35.31277 | 149.19444 | 1902 ft | 154 kts | 357° |
| 2026-05-06 14:43 | -35.30279 | 149.19438 | 1889 ft | 130 kts | 360° |
| 2026-05-06 14:43 | -35.29717 | 149.19447 | 1889 ft | 36 kts | 0° |
| 2026-05-06 14:44 | -35.29592 | 149.19376 | 1893 ft | 20 kts | 291° |
| 2026-05-06 14:44 | -35.29612 | 149.19247 | 1890 ft | 17 kts | 202° |
| 2026-05-06 14:44 | -35.29744 | 149.19236 | 1887 ft | 21 kts | 178° |
| 2026-05-06 14:45 | -35.30067 | 149.19241 | 1885 ft | 25 kts | 180° |
| 2026-05-06 14:45 | -35.30244 | 149.19239 | 1887 ft | 25 kts | 184° |
| 2026-05-06 14:45 | -35.30419 | 149.19237 | 1891 ft | 25 kts | 179° |
| 2026-05-06 14:45 | -35.30592 | 149.19239 | 1893 ft | 21 kts | 184° |
| 2026-05-06 14:46 | -35.30699 | 149.19163 | 1891 ft | 13 kts | 216° |
| 2026-05-06 14:46 | -35.30716 | 149.19149 | 1891 ft | 0 kts | 213° |